Terminal Aerodrome Forecast
Issued by NWS

Home | Current Version | Previous Version | Text Only | Print | Product List | Glossary On
Versions: 1 2 3 4 5 6 7 8 9 10 11 12
000
FTUS42 TJSJ 201721
TAFJBQ
TAF
TJBQ 201721Z 2018/2118 36004KT P6SM VCTS SCT035CB OVC080
     FM202300 VRB06KT P6SM VCSH SCT020 BKN060
     FM210300 VRB03KT P6SM VCSH SCT025 BKN100
     FM210600 VRB03KT P6SM SCT025 BKN100
      AMD NOT SKED 2102/2111=

USA.gov is the U.S. government's official web portal to all federal, state and local government web resources and services.